Time;durP1;ratioP1;P1;durP2;ratioP2;P2;SDS_P1;SDS_P2;PMS_P1;PMS_P2;Temp;Humidity;BMP_temperature;BMP_pressure;BME280_temperature;BME280_humidity;BME280_pressure;Samples;Min_cycle;Max_cycle;Signal;HPM_P1;HPM_P2
2023/08/08 00:00:20;;;;;;;2.20;1.20;;;;;;;12.06;90.30;97405.03;5045986;28;20044;-57
2023/08/08 00:02:46;;;;;;;2.05;1.00;;;;;;;12.02;90.42;97415.53;5048009;28;20434;-58
2023/08/08 00:05:13;;;;;;;2.10;0.98;;;;;;;12.08;90.46;97411.00;5044764;28;20583;-58
2023/08/08 00:07:39;;;;;;;4.15;1.20;;;;;;;12.03;90.91;97417.22;5044748;28;20052;-58
2023/08/08 00:10:06;;;;;;;3.65;1.23;;;;;;;12.07;91.01;97421.06;5043799;28;20059;-57
2023/08/08 00:12:33;;;;;;;2.20;1.00;;;;;;;12.09;90.68;97416.19;5044885;28;20041;-58
2023/08/08 00:14:59;;;;;;;3.22;1.15;;;;;;;12.16;90.34;97415.94;5045293;28;20040;-58
2023/08/08 00:17:26;;;;;;;5.38;1.02;;;;;;;12.14;90.78;97418.13;5043676;28;20047;-57
2023/08/08 00:19:52;;;;;;;2.35;1.05;;;;;;;12.08;91.30;97406.41;5046384;28;20072;-58
2023/08/08 00:22:19;;;;;;;3.60;1.15;;;;;;;12.04;91.54;97415.28;5046182;28;20045;-57
2023/08/08 00:24:45;;;;;;;2.25;1.10;;;;;;;12.15;90.81;97405.34;5047030;28;20527;-57
2023/08/08 00:27:12;;;;;;;2.65;1.10;;;;;;;12.23;89.80;97411.13;5042938;28;20045;-58
2023/08/08 00:29:38;;;;;;;3.35;0.93;;;;;;;11.94;92.84;97416.06;5046001;28;20045;-58
2023/08/08 00:32:05;;;;;;;2.33;1.00;;;;;;;11.55;96.09;97412.47;5045945;28;20047;-57
2023/08/08 00:34:32;;;;;;;2.05;1.00;;;;;;;11.51;96.37;97415.97;5045005;28;20057;-59
2023/08/08 00:36:58;;;;;;;2.25;0.90;;;;;;;11.51;96.26;97403.22;5050759;28;20048;-57
2023/08/08 00:39:25;;;;;;;2.83;1.27;;;;;;;11.53;95.94;97402.94;5043535;28;20544;-57
2023/08/08 00:41:51;;;;;;;2.85;1.55;;;;;;;11.34;98.02;97399.78;5037012;28;20045;-59
2023/08/08 00:44:18;;;;;;;2.80;1.10;;;;;;;11.19;99.23;97401.28;5046124;28;20048;-58
2023/08/08 00:46:44;;;;;;;3.03;1.63;;;;;;;11.04;100.00;97391.09;5045581;28;20436;-58
2023/08/08 00:49:11;;;;;;;2.72;1.20;;;;;;;11.12;99.50;97398.78;5047350;28;20047;-58
2023/08/08 00:51:38;;;;;;;2.38;1.15;;;;;;;11.06;100.00;97392.47;5048872;28;20041;-58
2023/08/08 00:54:05;;;;;;;2.90;1.25;;;;;;;11.05;100.00;97390.84;5046151;28;20692;-59
2023/08/08 00:56:32;;;;;;;2.88;1.10;;;;;;;11.16;99.91;97393.66;5040993;28;20033;-58
2023/08/08 00:58:58;;;;;;;1.92;0.98;;;;;;;11.40;97.30;97380.63;5045228;28;20071;-58
2023/08/08 01:01:25;;;;;;;2.25;1.08;;;;;;;11.50;96.70;97384.50;5043655;28;20277;-58
2023/08/08 01:03:52;;;;;;;3.50;1.30;;;;;;;11.68;95.24;97383.28;5046755;28;20044;-57
2023/08/08 01:06:51;;;;;;;2.95;1.00;;;;;;;11.75;94.81;97392.03;5039173;28;20484;-57
2023/08/08 01:09:28;;;;;;;2.50;1.10;;;;;;;11.76;94.56;97382.00;5046729;28;20064;-58
2023/08/08 01:11:56;;;;;;;3.38;1.33;;;;;;;11.87;94.04;97397.25;5040947;28;20040;-57
2023/08/08 01:14:26;;;;;;;3.65;1.35;;;;;;;11.92;93.70;97385.63;5047501;28;20047;-56
2023/08/08 01:16:57;;;;;;;2.92;1.00;;;;;;;11.88;94.07;97384.53;5040449;28;20112;-58
2023/08/08 01:19:27;;;;;;;4.70;1.27;;;;;;;11.77;95.36;97387.16;5037233;28;20036;-58
2023/08/08 01:21:58;;;;;;;2.90;1.20;;;;;;;11.61;97.29;97383.50;5046545;28;20051;-58
2023/08/08 01:24:28;;;;;;;;;;;;;;;11.56;97.88;97378.03;5045775;28;21339;-58
2023/08/08 01:26:56;;;;;;;3.30;1.15;;;;;;;11.50;98.32;97379.88;5041414;28;19935;-58
2023/08/08 01:29:23;;;;;;;3.17;1.65;;;;;;;11.63;97.46;97380.53;5038318;28;20053;-58
2023/08/08 01:31:50;;;;;;;2.65;1.10;;;;;;;11.83;95.60;97377.16;5045354;28;20041;-57
2023/08/08 01:34:16;;;;;;;2.63;1.02;;;;;;;12.01;94.23;97370.50;5043534;28;20041;-58
2023/08/08 01:36:52;;;;;;;2.47;1.10;;;;;;;12.16;93.39;97374.44;5046183;28;20040;-58
2023/08/08 01:39:23;;;;;;;3.33;1.00;;;;;;;12.35;91.33;97375.63;5046088;28;20520;-58
2023/08/08 01:41:52;;;;;;;2.55;1.02;;;;;;;12.48;90.31;97379.78;5040382;28;20052;-57
2023/08/08 01:44:20;;;;;;;3.00;1.20;;;;;;;12.59;89.32;97371.66;5047900;28;20043;-58
2023/08/08 01:46:46;;;;;;;2.03;1.00;;;;;;;12.64;88.97;97365.44;5045625;28;20037;-58
2023/08/08 01:49:13;;;;;;;3.95;1.40;;;;;;;12.60;89.17;97371.41;5044640;28;20060;-57
2023/08/08 01:51:40;;;;;;;3.72;1.10;;;;;;;12.52;89.16;97377.34;5025926;28;20037;-57
2023/08/08 01:54:07;;;;;;;6.22;1.45;;;;;;;12.52;89.07;97379.22;5037775;28;20098;-58
2023/08/08 01:56:34;;;;;;;2.20;1.08;;;;;;;12.51;88.89;97375.72;5043523;28;20143;-56
2023/08/08 01:59:00;;;;;;;3.72;1.27;;;;;;;12.39;89.53;97381.34;5033685;28;20412;-57
2023/08/08 02:01:27;;;;;;;3.72;1.65;;;;;;;12.32;90.00;97378.84;5041478;28;20093;-59
2023/08/08 02:03:54;;;;;;;2.47;0.90;;;;;;;12.29;89.90;97379.41;5043232;28;20033;-57
2023/08/08 02:06:21;;;;;;;2.85;0.90;;;;;;;12.23;90.54;97375.00;5040392;28;20033;-58
2023/08/08 02:08:48;;;;;;;3.30;1.35;;;;;;;12.23;90.40;97377.72;5038010;28;20045;-58
2023/08/08 02:11:14;;;;;;;2.05;0.85;;;;;;;12.18;90.63;97369.56;5037877;28;20057;-57
2023/08/08 02:13:41;;;;;;;3.13;1.20;;;;;;;12.08;91.11;97365.69;5043579;28;20041;-58
2023/08/08 02:16:07;;;;;;;2.45;1.17;;;;;;;12.18;90.64;97361.41;5043272;28;20037;-58
2023/08/08 02:18:35;;;;;;;3.13;1.20;;;;;;;12.21;90.23;97358.97;5048648;28;20044;-58
2023/08/08 02:21:02;;;;;;;3.03;1.25;;;;;;;12.16;90.18;97363.59;5036769;28;20049;-57
2023/08/08 02:23:30;;;;;;;1.85;0.93;;;;;;;12.12;90.29;97360.56;5044265;28;20146;-57
2023/08/08 02:25:56;;;;;;;3.22;1.20;;;;;;;12.15;90.32;97360.03;5039052;28;20041;-57
2023/08/08 02:28:23;;;;;;;2.90;1.20;;;;;;;11.97;90.76;97353.94;5042163;28;20435;-58
2023/08/08 02:30:49;;;;;;;2.13;0.90;;;;;;;11.95;90.78;97350.66;5038969;28;20098;-58
2023/08/08 02:33:16;;;;;;;1.52;1.00;;;;;;;11.92;91.39;97359.34;5039786;28;20047;-57
2023/08/08 02:35:42;;;;;;;2.72;1.10;;;;;;;11.94;91.29;97359.06;5034879;28;20068;-58
2023/08/08 02:38:09;;;;;;;2.97;1.23;;;;;;;11.89;91.45;97357.13;5041450;28;20136;-58
2023/08/08 02:40:41;;;;;;;3.20;1.30;;;;;;;11.79;91.87;97357.88;5039691;28;20119;-58
2023/08/08 02:43:09;;;;;;;2.47;0.90;;;;;;;11.62;93.27;97360.75;5043511;28;20073;-58
2023/08/08 02:45:35;;;;;;;1.70;0.88;;;;;;;11.67;93.00;97359.94;5046325;28;20060;-59
2023/08/08 02:48:03;;;;;;;3.00;1.20;;;;;;;11.43;94.07;97363.81;5040358;28;20102;-56
2023/08/08 02:50:29;;;;;;;4.47;1.10;;;;;;;11.27;95.54;97359.34;5037333;28;20060;-58
2023/08/08 02:52:56;;;;;;;2.80;1.00;;;;;;;11.15;96.72;97349.50;5040638;28;20053;-58
2023/08/08 02:55:26;;;;;;;2.35;1.10;;;;;;;11.14;96.58;97349.75;5041352;28;20098;-59
2023/08/08 02:57:53;;;;;;;3.08;1.23;;;;;;;10.87;99.17;97347.84;5040709;28;20048;-57
2023/08/08 03:00:19;;;;;;;3.03;1.25;;;;;;;10.59;100.00;97352.41;5042002;28;20530;-58
2023/08/08 03:02:49;;;;;;;4.45;1.25;;;;;;;10.59;100.00;97350.53;5038288;28;20064;-57
2023/08/08 03:05:16;;;;;;;3.67;1.52;;;;;;;10.30;100.00;97350.66;5040771;28;20048;-58
2023/08/08 03:07:42;;;;;;;3.88;1.30;;;;;;;10.25;100.00;97351.41;5052116;28;20048;-58
2023/08/08 03:10:12;;;;;;;3.55;1.30;;;;;;;10.26;100.00;97353.06;5045374;28;20042;-58
2023/08/08 03:12:41;;;;;;;3.67;1.50;;;;;;;10.16;100.00;97363.75;5046177;28;20053;-57
2023/08/08 03:15:08;;;;;;;4.15;1.20;;;;;;;10.16;100.00;97358.31;5043801;28;20044;-60
2023/08/08 03:17:36;;;;;;;5.07;1.55;;;;;;;10.23;100.00;97360.84;5049925;28;20502;-58
2023/08/08 03:20:06;;;;;;;3.45;1.27;;;;;;;10.23;100.00;97355.44;5044326;28;20045;-58
2023/08/08 03:22:33;;;;;;;3.95;1.38;;;;;;;10.38;100.00;97357.53;5052708;28;20499;-58
2023/08/08 03:25:00;;;;;;;3.60;1.30;;;;;;;10.57;100.00;97351.84;5047181;28;20045;-58
2023/08/08 03:27:26;;;;;;;2.83;1.40;;;;;;;10.76;100.00;97353.16;5042096;28;20037;-57
2023/08/08 03:29:53;;;;;;;2.72;1.15;;;;;;;10.85;100.00;97342.69;5046964;28;20044;-58
2023/08/08 03:32:20;;;;;;;3.60;1.40;;;;;;;11.04;100.00;97358.59;5044833;28;20043;-57
2023/08/08 03:34:46;;;;;;;4.03;1.30;;;;;;;11.23;99.47;97355.50;5044954;28;20097;-58
2023/08/08 03:37:13;;;;;;;4.35;1.40;;;;;;;11.34;98.68;97356.41;5046548;28;20059;-58
2023/08/08 03:39:40;;;;;;;4.95;1.38;;;;;;;11.41;98.25;97365.16;5044998;28;20032;-58
2023/08/08 03:42:07;;;;;;;3.42;1.20;;;;;;;11.45;97.80;97360.84;5042053;28;20040;-57
2023/08/08 03:44:34;;;;;;;2.42;1.27;;;;;;;11.56;97.21;97361.75;5046642;28;20033;-58
2023/08/08 03:47:00;;;;;;;2.83;1.17;;;;;;;11.68;96.91;97353.44;5042326;28;20037;-57
2023/08/08 03:49:43;;;;;;;2.25;1.02;;;;;;;11.62;97.35;97357.19;5047083;28;20049;-57
2023/08/08 03:52:11;;;;;;;3.15;1.20;;;;;;;11.60;98.00;97348.53;5047001;28;20099;-58
2023/08/08 03:54:38;;;;;;;2.22;1.00;;;;;;;11.56;98.42;97351.75;5043068;28;20048;-57
2023/08/08 03:57:05;;;;;;;2.47;1.30;;;;;;;11.54;98.69;97353.09;5036140;28;20037;-57
2023/08/08 03:59:31;;;;;;;3.10;1.52;;;;;;;11.55;98.44;97350.13;5040937;28;20052;-58
2023/08/08 04:01:58;;;;;;;2.75;1.38;;;;;;;11.61;97.56;97353.66;5044884;28;20037;-58
2023/08/08 04:04:24;;;;;;;2.72;1.20;;;;;;;11.60;97.63;97345.81;5042218;28;20037;-58
2023/08/08 04:06:51;;;;;;;3.20;1.02;;;;;;;11.57;97.88;97352.53;5038861;28;20437;-58
2023/08/08 04:09:17;;;;;;;3.45;1.40;;;;;;;11.50;98.66;97349.25;5038473;28;20048;-58
2023/08/08 04:11:44;;;;;;;4.25;1.60;;;;;;;11.43;98.69;97352.97;5037153;28;20164;-57
2023/08/08 04:14:10;;;;;;;3.10;1.20;;;;;;;11.46;98.40;97357.06;5044490;28;20052;-59
2023/08/08 04:16:39;;;;;;;2.70;1.52;;;;;;;11.50;98.02;97358.19;5041479;28;20045;-59
2023/08/08 04:19:06;;;;;;;2.28;1.23;;;;;;;11.47;98.11;97353.31;5040317;28;20115;-59
2023/08/08 04:21:32;;;;;;;4.30;1.38;;;;;;;11.15;100.00;97354.91;5039988;28;20127;-56
2023/08/08 04:23:59;;;;;;;1.80;1.13;;;;;;;10.85;100.00;97350.81;5043547;28;20048;-58
2023/08/08 04:26:26;;;;;;;4.88;1.52;;;;;;;10.69;100.00;97355.22;5045901;28;20040;-59
2023/08/08 04:28:53;;;;;;;5.13;1.73;;;;;;;10.61;100.00;97355.69;5040388;28;20041;-58
2023/08/08 04:31:19;;;;;;;6.45;1.83;;;;;;;10.48;100.00;97360.41;5042282;28;20053;-58
2023/08/08 04:33:46;;;;;;;3.97;1.48;;;;;;;10.50;100.00;97360.97;5036710;28;20036;-59
2023/08/08 04:36:12;;;;;;;3.53;1.60;;;;;;;10.49;100.00;97363.91;5045201;28;20037;-58
2023/08/08 04:38:39;;;;;;;4.03;1.73;;;;;;;10.57;100.00;97368.09;5039363;28;20045;-58
2023/08/08 04:41:05;;;;;;;4.90;1.70;;;;;;;10.74;100.00;97363.44;5040580;28;20045;-58
2023/08/08 04:43:32;;;;;;;3.90;1.48;;;;;;;10.68;100.00;97361.72;5038520;28;20033;-58
2023/08/08 04:45:58;;;;;;;4.18;1.50;;;;;;;10.63;100.00;97357.06;5042099;28;20078;-58
2023/08/08 04:48:25;;;;;;;5.43;1.50;;;;;;;10.56;100.00;97358.31;5040664;28;20033;-58
2023/08/08 04:50:51;;;;;;;5.93;1.70;;;;;;;10.54;100.00;97364.81;5045775;28;20037;-58
2023/08/08 04:53:18;;;;;;;2.70;1.25;;;;;;;10.59;100.00;97363.22;5041195;28;20512;-57
2023/08/08 04:55:46;;;;;;;3.75;1.33;;;;;;;10.64;100.00;97357.88;5043203;28;20037;-59
2023/08/08 04:58:12;;;;;;;4.05;1.55;;;;;;;10.65;100.00;97351.41;5041851;28;20080;-59
2023/08/08 05:00:39;;;;;;;4.35;1.67;;;;;;;10.64;100.00;97368.69;5048045;28;20052;-58
2023/08/08 05:03:06;;;;;;;3.13;1.60;;;;;;;10.70;100.00;97359.59;5042976;28;20080;-58
2023/08/08 05:05:33;;;;;;;3.97;1.52;;;;;;;10.88;100.00;97365.75;5045132;28;20133;-58
2023/08/08 05:07:59;;;;;;;3.58;1.35;;;;;;;10.88;100.00;97369.25;5041605;28;20110;-58
2023/08/08 05:10:26;;;;;;;3.63;1.40;;;;;;;10.93;100.00;97376.63;5043493;28;20051;-59
2023/08/08 05:12:52;;;;;;;2.35;1.35;;;;;;;10.97;100.00;97363.38;5045140;28;20263;-58
2023/08/08 05:15:19;;;;;;;4.82;1.63;;;;;;;11.09;100.00;97368.66;5041680;28;20061;-58
2023/08/08 05:17:45;;;;;;;2.75;1.13;;;;;;;11.22;100.00;97364.72;5042910;28;20047;-59
2023/08/08 05:20:12;;;;;;;3.22;1.50;;;;;;;11.41;100.00;97370.59;5038669;28;20056;-58
2023/08/08 05:22:38;;;;;;;2.83;1.30;;;;;;;11.65;100.00;97375.69;5042949;28;20051;-58
2023/08/08 05:25:05;;;;;;;2.75;1.33;;;;;;;11.89;98.51;97375.28;5037629;28;20072;-57
2023/08/08 05:27:32;;;;;;;2.83;1.00;;;;;;;12.12;96.97;97360.56;5042146;28;20063;-58
2023/08/08 05:29:59;;;;;;;3.60;1.20;;;;;;;12.19;96.58;97369.28;5037301;28;20041;-58
2023/08/08 05:32:25;;;;;;;4.43;1.35;;;;;;;12.10;97.68;97371.66;5033555;28;20042;-57
2023/08/08 05:34:52;;;;;;;3.08;1.40;;;;;;;12.18;97.80;97366.84;5038938;28;20044;-58
2023/08/08 05:37:18;;;;;;;4.18;1.30;;;;;;;12.17;97.05;97370.63;5034132;28;20048;-57
2023/08/08 05:39:45;;;;;;;2.85;1.10;;;;;;;12.23;96.51;97375.00;5041573;28;20072;-57
2023/08/08 05:42:11;;;;;;;2.58;1.30;;;;;;;12.22;96.47;97368.78;5039342;28;20066;-59
2023/08/08 05:44:38;;;;;;;3.53;1.30;;;;;;;12.23;97.19;97359.53;5046072;28;20071;-58
2023/08/08 05:47:05;;;;;;;3.80;1.35;;;;;;;12.28;96.84;97364.19;5033515;28;20508;-58
2023/08/08 05:49:32;;;;;;;2.72;1.30;;;;;;;12.38;95.94;97357.97;5039667;28;20041;-59
2023/08/08 05:51:58;;;;;;;2.85;1.23;;;;;;;12.49;95.44;97361.56;5045378;28;20047;-58
2023/08/08 05:54:25;;;;;;;2.55;1.23;;;;;;;12.56;95.12;97361.31;5039831;28;20672;-59
2023/08/08 05:56:52;;;;;;;3.70;1.20;;;;;;;12.62;94.36;97354.84;5041509;28;20043;-58
2023/08/08 05:59:18;;;;;;;4.10;1.52;;;;;;;12.73;94.16;97363.84;5038876;28;20053;-58
2023/08/08 06:01:46;;;;;;;4.03;1.30;;;;;;;12.80;93.13;97369.84;5034720;28;20063;-59
2023/08/08 06:04:13;;;;;;;2.45;1.10;;;;;;;12.93;93.15;97365.81;5041688;28;20037;-57
2023/08/08 06:06:40;;;;;;;2.67;1.20;;;;;;;13.01;92.60;97373.44;5042787;28;20053;-59
2023/08/08 06:09:08;;;;;;;3.15;1.25;;;;;;;13.14;92.31;97371.28;5040043;28;20072;-58
2023/08/08 06:11:35;;;;;;;3.65;1.33;;;;;;;13.28;91.08;97377.03;5041583;28;20578;-57
2023/08/08 06:14:01;;;;;;;2.97;1.10;;;;;;;13.42;90.29;97374.59;5041405;28;21261;-58
2023/08/08 06:16:28;;;;;;;3.13;1.40;;;;;;;13.52;89.10;97369.19;5039317;28;20988;-58
2023/08/08 06:18:54;;;;;;;2.45;1.02;;;;;;;13.68;87.55;97373.81;5038267;28;20512;-57
2023/08/08 06:21:21;;;;;;;3.35;1.40;;;;;;;13.74;87.97;97378.16;5040520;28;20037;-58
2023/08/08 06:23:47;;;;;;;2.53;1.10;;;;;;;13.75;88.16;97374.38;5037727;28;20049;-58
2023/08/08 06:26:14;;;;;;;3.17;1.20;;;;;;;13.77;87.48;97372.19;5037083;28;21537;-57
2023/08/08 06:28:40;;;;;;;3.38;1.10;;;;;;;13.82;88.75;97374.91;5040632;28;20397;-56
2023/08/08 06:31:07;;;;;;;2.78;1.20;;;;;;;13.82;88.26;97380.34;5037808;28;20041;-58
2023/08/08 06:33:33;;;;;;;2.55;1.08;;;;;;;13.79;88.15;97375.47;5037387;28;20048;-57
2023/08/08 06:36:00;;;;;;;2.85;1.10;;;;;;;13.81;87.96;97375.19;5038535;28;20638;-57
2023/08/08 06:38:27;;;;;;;2.15;0.90;;;;;;;13.84;87.96;97375.47;5037384;28;20044;-57
2023/08/08 06:40:53;;;;;;;3.67;1.13;;;;;;;13.89;88.32;97370.00;5039621;28;20438;-57
2023/08/08 06:43:20;;;;;;;4.20;1.02;;;;;;;13.98;87.44;97372.16;5043872;28;20049;-58
2023/08/08 06:45:47;;;;;;;2.65;0.98;;;;;;;14.14;87.76;97373.78;5043822;28;20427;-58
2023/08/08 06:48:13;;;;;;;3.10;1.20;;;;;;;14.33;85.06;97367.75;5040090;28;20071;-57
2023/08/08 06:50:40;;;;;;;2.50;1.27;;;;;;;14.46;83.51;97369.06;5043993;28;20047;-57
2023/08/08 06:53:07;;;;;;;2.30;1.17;;;;;;;14.62;84.11;97371.72;5038296;28;20045;-58
2023/08/08 06:55:33;;;;;;;3.05;1.30;;;;;;;14.77;80.80;97368.97;5042552;28;20050;-57
2023/08/08 06:58:00;;;;;;;3.63;0.98;;;;;;;14.94;79.37;97367.81;5046927;28;20503;-58
2023/08/08 07:00:27;;;;;;;3.30;1.20;;;;;;;14.95;78.95;97364.81;5044700;28;20044;-59
2023/08/08 07:02:54;;;;;;;2.50;1.00;;;;;;;14.98;80.01;97365.31;5049589;28;20040;-58
2023/08/08 07:05:22;;;;;;;3.90;1.38;;;;;;;15.10;78.70;97363.09;5046078;28;20049;-58
2023/08/08 07:07:52;;;;;;;2.17;0.90;;;;;;;15.21;79.13;97370.13;5015373;28;20507;-58
2023/08/08 07:10:19;;;;;;;2.90;1.30;;;;;;;15.30;77.95;97364.84;5036532;28;20061;-58
2023/08/08 07:12:45;;;;;;;2.72;1.23;;;;;;;15.30;78.05;97362.13;5037112;28;20045;-58
2023/08/08 07:15:12;;;;;;;2.58;1.27;;;;;;;15.45;79.67;97360.41;5042744;28;20531;-58
2023/08/08 07:17:39;;;;;;;4.13;1.10;;;;;;;15.45;77.64;97366.66;5046009;28;20032;-59
2023/08/08 07:20:06;;;;;;;1.60;0.88;;;;;;;15.49;75.39;97361.47;5039981;28;20049;-59
2023/08/08 07:22:32;;;;;;;3.63;1.13;;;;;;;15.59;76.81;97360.59;5036348;28;20048;-59
2023/08/08 07:24:59;;;;;;;3.25;1.08;;;;;;;15.66;77.67;97352.88;5038500;28;20782;-59
2023/08/08 07:27:26;;;;;;;2.28;1.10;;;;;;;15.66;76.66;97358.31;5043051;28;20056;-57
2023/08/08 07:29:53;;;;;;;2.13;0.90;;;;;;;15.78;76.38;97354.41;5046226;28;20503;-59
2023/08/08 07:32:19;;;;;;;6.97;1.20;;;;;;;15.96;76.10;97361.13;5041600;28;20076;-58
2023/08/08 07:34:46;;;;;;;2.35;0.95;;;;;;;16.06;70.58;97354.72;5039863;28;20045;-60
2023/08/08 07:37:14;;;;;;;3.72;1.13;;;;;;;16.31;74.25;97347.38;5039823;28;20052;-61
2023/08/08 07:39:40;;;;;;;2.30;0.77;;;;;;;16.46;71.95;97352.66;5044273;28;20135;-60
2023/08/08 07:42:07;;;;;;;2.65;0.95;;;;;;;16.46;66.94;97352.66;5040788;28;20058;-61
2023/08/08 07:44:35;;;;;;;1.52;0.70;;;;;;;16.21;67.38;97356.47;5041927;28;20032;-58
2023/08/08 07:47:01;;;;;;;2.10;0.80;;;;;;;16.32;66.06;97357.19;5033923;28;20048;-58
2023/08/08 07:49:28;;;;;;;3.22;0.95;;;;;;;16.35;65.94;97353.88;5009933;28;20115;-58
2023/08/08 07:51:54;;;;;;;1.92;1.00;;;;;;;16.47;67.76;97351.56;5010697;28;20045;-58
2023/08/08 07:54:21;;;;;;;3.80;1.00;;;;;;;16.53;67.09;97346.84;5018589;28;20127;-59
2023/08/08 07:56:47;;;;;;;4.45;0.90;;;;;;;16.50;65.89;97356.44;5016848;28;20048;-59
2023/08/08 07:59:14;;;;;;;2.58;0.73;;;;;;;16.48;64.73;97350.44;5040092;28;20040;-57
2023/08/08 08:01:41;;;;;;;2.13;0.90;;;;;;;16.48;65.26;97341.44;5046498;28;20063;-59
2023/08/08 08:04:07;;;;;;;2.50;0.90;;;;;;;16.59;65.02;97356.59;5044137;28;20056;-56
2023/08/08 08:06:34;;;;;;;4.53;0.85;;;;;;;16.66;64.43;97352.72;5042521;28;20049;-58
2023/08/08 08:09:01;;;;;;;2.03;0.88;;;;;;;16.68;63.64;97343.09;5042658;28;20060;-59
2023/08/08 08:11:27;;;;;;;2.28;0.90;;;;;;;16.78;63.94;97348.44;5043366;28;20523;-57
2023/08/08 08:13:54;;;;;;;1.83;0.95;;;;;;;16.76;63.56;97347.94;5045513;28;20037;-58
2023/08/08 08:16:20;;;;;;;3.05;0.77;;;;;;;16.69;63.10;97344.72;5041472;28;20049;-58
2023/08/08 08:18:47;;;;;;;3.67;1.00;;;;;;;16.56;62.63;97340.81;5033988;28;20585;-58
2023/08/08 08:21:14;;;;;;;4.05;0.98;;;;;;;16.54;63.21;97351.19;5042097;28;20052;-58
2023/08/08 08:23:40;;;;;;;2.80;0.88;;;;;;;16.63;63.45;97351.38;5039294;28;20045;-57
2023/08/08 08:26:07;;;;;;;2.10;0.95;;;;;;;16.68;63.54;97353.22;5036524;28;20050;-59
2023/08/08 08:28:33;;;;;;;2.00;1.13;;;;;;;16.84;63.27;97338.25;5042699;28;20052;-57
2023/08/08 08:31:05;;;;;;;2.28;1.00;;;;;;;16.94;63.84;97334.56;5038475;28;20075;-58
2023/08/08 08:33:31;;;;;;;3.88;0.80;;;;;;;17.20;64.40;97349.81;5044350;28;20056;-57
2023/08/08 08:35:58;;;;;;;2.33;0.80;;;;;;;17.24;62.14;97331.69;5039115;28;20071;-57
2023/08/08 08:38:24;;;;;;;3.47;0.80;;;;;;;17.09;61.27;97336.31;5036844;28;20033;-58
2023/08/08 08:40:55;;;;;;;2.45;0.88;;;;;;;17.28;61.49;97336.28;5047163;28;20051;-58
2023/08/08 08:43:22;;;;;;;2.55;0.73;;;;;;;17.25;60.34;97328.69;5039448;28;20126;-57
2023/08/08 08:45:54;;;;;;;2.58;0.80;;;;;;;17.25;60.50;97336.09;5045654;28;20044;-55
2023/08/08 08:48:21;;;;;;;;;;;;;;;17.46;60.73;97338.50;5043375;28;20040;-58
2023/08/08 08:50:48;;;;;;;2.15;0.73;;;;;;;17.48;59.01;97337.09;5041961;28;19978;-57
2023/08/08 08:53:17;;;;;;;2.22;1.10;;;;;;;17.55;60.22;97336.72;5039188;28;20593;-60
2023/08/08 08:55:45;;;;;;;3.90;1.20;;;;;;;17.68;59.43;97338.69;5042626;28;20044;-55
2023/08/08 08:58:16;;;;;;;2.20;0.90;;;;;;;17.71;58.54;97331.78;5038663;28;20441;-58
2023/08/08 09:00:45;;;;;;;4.20;0.90;;;;;;;17.94;58.85;97326.47;5040993;28;20048;-59
2023/08/08 09:03:13;;;;;;;4.03;0.90;;;;;;;17.99;57.63;97334.56;5034959;28;20040;-58
2023/08/08 09:05:41;;;;;;;3.03;0.90;;;;;;;18.01;57.89;97337.03;5044588;28;20060;-57
2023/08/08 09:08:09;;;;;;;1.88;0.80;;;;;;;18.25;58.56;97328.69;5040186;28;20116;-58
2023/08/08 09:10:35;;;;;;;3.60;0.80;;;;;;;18.17;57.15;97327.44;5035905;28;20098;-57
2023/08/08 09:13:02;;;;;;;8.10;1.60;;;;;;;18.41;55.82;97311.91;5034371;28;20045;-58
2023/08/08 09:15:33;;;;;;;4.05;1.08;;;;;;;18.18;55.64;97331.78;5040778;28;20111;-58
2023/08/08 09:18:00;;;;;;;;;;;;;;;18.26;56.97;97324.00;5040249;28;20052;-60
2023/08/08 09:20:30;;;;;;;1.98;0.80;;;;;;;18.23;56.33;97322.69;5040983;28;19928;-56
2023/08/08 09:22:57;;;;;;;3.97;1.10;;;;;;;18.33;55.95;97324.41;5040262;28;20045;-60
2023/08/08 09:25:24;;;;;;;3.08;0.85;;;;;;;18.18;56.41;97325.53;5043165;28;20049;-58
2023/08/08 09:27:55;;;;;;;4.35;1.23;;;;;;;18.22;55.50;97320.22;5042102;28;20044;-59
2023/08/08 09:30:22;;;;;;;3.53;0.95;;;;;;;18.18;54.27;97328.25;5014081;28;20066;-58
2023/08/08 09:32:49;;;;;;;3.75;1.17;;;;;;;18.09;55.51;97317.19;5023740;28;20098;-57
2023/08/08 09:35:16;;;;;;;3.05;0.85;;;;;;;18.07;56.12;97320.19;5040374;28;20057;-58
2023/08/08 09:37:43;;;;;;;2.47;0.85;;;;;;;18.15;56.09;97337.06;5041450;28;20052;-59
2023/08/08 09:40:11;;;;;;;2.75;1.00;;;;;;;18.19;53.41;97327.97;5036914;28;20072;-57
2023/08/08 09:42:40;;;;;;;2.80;0.95;;;;;;;18.12;53.50;97315.75;5044629;28;20512;-58
2023/08/08 09:45:09;;;;;;;2.10;0.80;;;;;;;18.46;55.44;97314.53;5044491;28;20064;-59
2023/08/08 09:47:37;;;;;;;4.40;1.02;;;;;;;18.50;54.06;97306.53;5036850;28;20040;-58
2023/08/08 09:50:04;;;;;;;2.78;0.73;;;;;;;18.58;54.82;97317.59;5012830;28;20131;-59
2023/08/08 09:52:33;;;;;;;2.92;0.90;;;;;;;18.45;52.87;97315.66;5028135;28;20134;-57
2023/08/08 09:55:00;;;;;;;5.03;1.30;;;;;;;18.35;53.61;97313.16;5042412;28;20460;-58
2023/08/08 09:57:28;;;;;;;3.75;0.90;;;;;;;18.14;52.72;97313.53;5041887;28;20045;-56
2023/08/08 09:59:55;;;;;;;3.33;1.08;;;;;;;18.28;53.44;97308.88;5039904;28;20037;-59
2023/08/08 10:02:22;;;;;;;2.65;0.77;;;;;;;18.34;52.51;97320.53;5034179;28;20037;-59
2023/08/08 10:04:49;;;;;;;2.85;1.27;;;;;;;18.45;52.80;97301.97;5039447;28;20149;-57
2023/08/08 10:07:15;;;;;;;3.10;0.80;;;;;;;18.61;51.63;97307.94;5035397;28;20536;-56
2023/08/08 10:09:42;;;;;;;3.42;0.88;;;;;;;18.80;51.93;97307.81;5039311;28;20516;-59
2023/08/08 10:12:11;;;;;;;2.78;0.75;;;;;;;18.92;51.33;97300.97;5042687;28;20049;-59
2023/08/08 10:14:41;;;;;;;2.65;1.13;;;;;;;18.95;51.02;97300.38;5032736;28;20091;-59
2023/08/08 10:17:07;;;;;;;2.33;0.80;;;;;;;19.22;51.81;97305.00;5043364;28;20051;-58
2023/08/08 10:19:35;;;;;;;2.15;0.88;;;;;;;19.05;50.57;97307.56;5042534;28;20062;-57
2023/08/08 10:22:05;;;;;;;1.80;0.90;;;;;;;18.95;50.87;97294.88;5045214;28;20055;-58
2023/08/08 10:24:36;;;;;;;3.72;0.90;;;;;;;18.97;49.46;97312.66;5043603;28;20536;-58
2023/08/08 10:27:04;;;;;;;4.57;1.10;;;;;;;19.19;50.94;97297.38;5042362;28;20037;-59
2023/08/08 10:29:33;;;;;;;2.05;0.93;;;;;;;19.36;50.46;97307.66;5044086;28;20052;-59
2023/08/08 10:32:05;;;;;;;2.33;1.08;;;;;;;19.35;48.72;97302.50;5043646;28;20064;-59
2023/08/08 10:34:38;;;;;;;4.85;0.90;;;;;;;19.25;49.46;97298.06;5046170;28;20142;-58
2023/08/08 10:37:09;;;;;;;1.75;0.80;;;;;;;19.48;49.07;97309.03;5040854;28;20036;-59
2023/08/08 10:39:36;;;;;;;5.82;1.10;;;;;;;19.62;50.02;97303.50;5044809;28;20378;-59
2023/08/08 10:42:04;;;;;;;2.50;1.27;;;;;;;19.68;50.61;97302.22;5047083;28;20040;-60
2023/08/08 10:44:31;;;;;;;1.98;0.70;;;;;;;19.73;50.65;97293.06;5027299;28;20052;-59
2023/08/08 10:47:00;;;;;;;1.38;0.70;;;;;;;19.81;50.04;97302.47;5019808;28;20045;-58
2023/08/08 10:49:27;;;;;;;1.30;0.80;;;;;;;19.92;50.00;97298.34;5039062;28;21315;-57
2023/08/08 10:51:54;;;;;;;2.20;0.80;;;;;;;20.14;50.00;97296.69;5046419;28;20053;-59
2023/08/08 10:54:30;;;;;;;2.40;0.90;;;;;;;20.20;49.47;97308.34;5035588;28;20045;-59
2023/08/08 10:56:59;;;;;;;2.70;1.13;;;;;;;19.97;49.35;97295.44;5028788;28;20462;-58
2023/08/08 10:59:37;;;;;;;1.50;0.70;;;;;;;19.95;48.63;97291.38;5029262;28;20034;-58
2023/08/08 11:02:05;;;;;;;1.83;0.80;;;;;;;19.66;49.32;97295.44;5025337;28;20041;-56
2023/08/08 11:04:32;;;;;;;2.65;1.00;;;;;;;19.52;48.84;97285.34;5006210;28;20325;-58
2023/08/08 11:06:59;;;;;;;4.57;1.20;;;;;;;19.75;50.80;97293.53;5009634;28;20056;-60
2023/08/08 11:09:26;;;;;;;2.35;1.05;;;;;;;20.02;49.54;97291.78;5042693;28;20044;-61
2023/08/08 11:11:53;;;;;;;2.08;1.00;;;;;;;20.00;49.15;97289.34;5017850;28;20045;-59
2023/08/08 11:14:21;;;;;;;1.48;0.65;;;;;;;19.80;49.18;97296.19;5029724;28;20114;-57
2023/08/08 11:16:50;;;;;;;2.25;0.68;;;;;;;19.78;50.02;97292.13;5042909;28;20053;-59
2023/08/08 11:19:19;;;;;;;2.33;1.00;;;;;;;19.46;48.73;97289.34;5040553;28;20123;-60
2023/08/08 11:21:47;;;;;;;3.15;0.95;;;;;;;19.77;49.30;97294.03;5043123;28;20052;-59
2023/08/08 11:24:13;;;;;;;1.42;0.70;;;;;;;19.84;46.47;97290.84;5045430;28;20048;-57
2023/08/08 11:26:43;;;;;;;2.60;0.88;;;;;;;20.22;47.44;97286.84;5035624;28;20054;-59
2023/08/08 11:29:10;;;;;;;4.00;1.30;;;;;;;20.59;47.94;97298.44;5042012;28;20063;-59
2023/08/08 11:31:37;;;;;;;2.38;0.80;;;;;;;20.57;46.29;97294.41;5042852;28;20156;-61